»·PEaware :: N437ER KSBP-KSMX

N437ER :: KSBP-KSMX

FLIGHT INFORMATION

Flight Status: Arrived
Operator: Privately registered:
United States
More flights under this callsign
Pilot: Tyler T. (23620)
Aircraft: CESSNA 172 SKYHAWK
(C172)
More flights by this aircraft type
Origin: KSBP San Luis Co Regl
United States
Destination: KSMX Santa Maria Pub/Capt Hancock
United States
More flights between these airports :: More routes between these airports
Route:
File this flight plan on PilotEdge
Remarks: CAT-4
Altitude:
(Current/Filed)
3,500ft
Speed:
(Current/Filed)
110kts
Departed: 23-Feb-19 03:11 PM
Arrived: 23-Feb-19 03:39 PM
Distance/Time
Traveled:
22nm/0:28
Distance/Time
To Go:
Arrived

Flight Plot

Page will automatically refresh every two minutes.


Map Options




Map Legend


Flown Route
Filed Route
Departure Airport
Arrival Airport
Navaid (VOR, NDB)
Fix

Horizontal Profiles

Position Reports

Time Latitude Longitude Heading Altitude Ground
Speed
23-Feb-19 14:55 35.238248 -120.639994 308 216ft 0kts
23-Feb-19 14:56 35.238248 -120.639994 308 216ft 0kts
23-Feb-19 14:57 35.238248 -120.639994 308 216ft 0kts
23-Feb-19 14:58 35.238248 -120.639994 308 216ft 0kts
23-Feb-19 14:59 35.238248 -120.639994 308 216ft 0kts
23-Feb-19 15:00 35.238248 -120.639994 308 216ft 0kts
23-Feb-19 15:01 35.238248 -120.639994 308 216ft 0kts
23-Feb-19 15:02 35.238248 -120.639994 308 216ft 0kts
23-Feb-19 15:03 35.238248 -120.639994 308 216ft 0kts
23-Feb-19 15:04 35.238248 -120.639994 308 216ft 0kts
23-Feb-19 15:05 35.238560 -120.641449 304 216ft 10kts
23-Feb-19 15:06 35.240050 -120.643887 302 216ft 10kts
23-Feb-19 15:07 35.241813 -120.646967 306 216ft 12kts
23-Feb-19 15:08 35.242437 -120.648677 239 216ft 0kts
23-Feb-19 15:09 35.242368 -120.648799 229 216ft 7kts
23-Feb-19 15:10 35.233939 -120.635371 126 486ft 86kts
23-Feb-19 15:11 35.217902 -120.612335 142 1112ft 90kts
23-Feb-19 15:12 35.193740 -120.600545 165 1685ft 95kts
23-Feb-19 15:13 35.167750 -120.590294 157 2247ft 98kts
23-Feb-19 15:14 35.141749 -120.579642 167 2794ft 99kts
23-Feb-19 15:15 35.114743 -120.569782 162 3306ft 101kts
23-Feb-19 15:16 35.086239 -120.559079 158 3520ft 114kts
23-Feb-19 15:17 35.056322 -120.549529 172 3518ft 108kts
23-Feb-19 15:18 35.027002 -120.544854 172 3519ft 104kts
23-Feb-19 15:19 35.005836 -120.556595 279 3519ft 100kts
23-Feb-19 15:20 35.029268 -120.572202 342 3520ft 100kts
23-Feb-19 15:21 35.055187 -120.573025 59 3519ft 100kts
23-Feb-19 15:22 35.042100 -120.547440 136 3511ft 89kts
23-Feb-19 15:23 35.029159 -120.527586 67 3522ft 84kts
23-Feb-19 15:24 35.043557 -120.534584 248 3520ft 88kts
23-Feb-19 15:25 35.023175 -120.531649 134 3520ft 91kts
23-Feb-19 15:26 35.029236 -120.512392 339 3519ft 90kts
23-Feb-19 15:27 35.024368 -120.531820 163 3168ft 84kts
23-Feb-19 15:28 35.020417 -120.508397 33 2664ft 82kts
23-Feb-19 15:29 35.029346 -120.523080 218 2159ft 82kts
23-Feb-19 15:30 35.015905 -120.510596 60 2011ft 84kts
23-Feb-19 15:31 35.013314 -120.486617 157 2010ft 88kts
23-Feb-19 15:32 34.988230 -120.485107 190 2008ft 91kts
23-Feb-19 15:33 34.963057 -120.485057 155 1828ft 94kts
23-Feb-19 15:34 34.941523 -120.466961 139 1523ft 92kts
23-Feb-19 15:35 34.923104 -120.448118 139 1230ft 86kts
23-Feb-19 15:36 34.904867 -120.429640 144 1005ft 81kts
23-Feb-19 15:37 34.889002 -120.432504 232 714ft 71kts
23-Feb-19 15:38 34.896043 -120.449715 310 265ft 27kts
23-Feb-19 15:39 34.898066 -120.450270 3 265ft 0kts
23-Feb-19 15:40 34.899776 -120.451605 17 265ft 6kts
23-Feb-19 15:41 34.899700 -120.450925 224 265ft 0kts
23-Feb-19 15:42 34.899700 -120.450925 224 265ft 0kts
23-Feb-19 15:43 34.899700 -120.450925 224 265ft 0kts
23-Feb-19 15:44 34.899700 -120.450925 224 265ft 0kts
23-Feb-19 15:45 34.899700 -120.450925 224 265ft 0kts

Navigation Log

Ident Type
Flight plan parsing failed, navigation log unavailable